Lodge Grass, Montana
Current Conditions -  °F | °C
As of 7:53 AM on Friday 24 Oct 2014 (Local Time) from KSHR Reporting Station
Clear Clear  
Wind Chill: 40°   Ceiling: Unl
Heat Index: 40°   Visibility: 10mi
Dew Point: 30°   Wind: 3mph
Humidity: 68%   Direction: 150°SSE
Pressure: 30.03"   Gusts: NA
Location:  45.31°N, 107.36°W
Report Text: KSHR 241353Z AUTO 15003KT 10SM CLR 04/M01 A3003 RMK AO2 SLP175 T00441011 TSNO
Loading
Personal Weather Stations






























Interactive Weather Map
Tropical Storm Tracking
New forecast layout! Learn more

10-Day Weather Forecast

Advertisements
Track Severe Weather on mobile